Time;durP1;ratioP1;P1;durP2;ratioP2;P2;SDS_P1;SDS_P2;PMS_P1;PMS_P2;Temp;Humidity;BMP_temperature;BMP_pressure;BME280_temperature;BME280_humidity;BME280_pressure;Samples;Min_cycle;Max_cycle;Signal;HPM_P1;HPM_P2
2021/12/27 00:04:06;;;;;;;;;;;;;;;0.13;85.28125;100345.6;;;;-88
2021/12/27 00:09:23;;;;;;;;;;;;;;;0.14;85.43262;100340.9;;;;-87
2021/12/27 00:14:05;;;;;;;;;;;;;;;0.16;85.32813;100335.2;;;;-88
2021/12/27 00:21:01;;;;;;;15.9;5.8;;;;;;;;;;;;;-88
2021/12/27 00:22:53;;;;;;;;;;;;;;;0.17;85.45117;100328.5;;;;-87
2021/12/27 00:27:41;;;;;;;;;;;;;;;0.19;85.33594;100319.8;;;;-87
2021/12/27 00:32:43;;;;;;;;;;;;;;;0.2;85.59473;100323.3;;;;-87
2021/12/27 00:37:46;;;;;;;;;;;;;;;0.2;85.65039;100319.2;;;;-88
2021/12/27 00:42:43;;;;;;;;;;;;;;;0.22;85.72754;100314.3;;;;-87
2021/12/27 00:47:46;;;;;;;;;;;;;;;0.23;85.83008;100309.8;;;;-88
2021/12/27 00:50:43;;;;;;;17.2;6.8;;;;;;;;;;;;;-87
2021/12/27 00:52:49;;;;;;;;;;;;;;;0.24;86.03516;100299.6;;;;-86
2021/12/27 00:57:46;;;;;;;;;;;;;;;0.25;85.85352;100285.9;;;;-87
2021/12/27 01:02:38;;;;;;;;;;;;;;;0.27;85.85742;100283.2;;;;-87
2021/12/27 01:07:38;;;;;;;;;;;;;;;0.29;85.87305;100285.9;;;;-87
2021/12/27 01:13:03;;;;;;;;;;;;;;;0.29;86.00293;100285.3;;;;-85
2021/12/27 01:17:41;;;;;;;;;;;;;;;0.31;85.97266;100284.1;;;;-87
2021/12/27 01:20:42;;;;;;;15.1;6.6;;;;;;;;;;;;;-86
2021/12/27 01:22:46;;;;;;;;;;;;;;;0.32;86.39648;100280.3;;;;-85
2021/12/27 01:27:55;;;;;;;;;;;;;;;0.34;86.08691;100267.9;;;;-86
2021/12/27 01:32:51;;;;;;;;;;;;;;;0.35;86.06934;100258.9;;;;-86
2021/12/27 01:37:50;;;;;;;;;;;;;;;0.37;86.16797;100253.2;;;;-88
2021/12/27 01:42:49;;;;;;;;;;;;;;;0.37;86.21191;100249.6;;;;-86
2021/12/27 01:47:59;;;;;;;;;;;;;;;0.39;86.43066;100252.6;;;;-87
2021/12/27 01:50:40;;;;;;;16.7;6.8;;;;;;;;;;;;;-87
2021/12/27 01:52:49;;;;;;;;;;;;;;;0.41;86.33789;100252.2;;;;-86
2021/12/27 01:57:44;;;;;;;;;;;;;;;0.42;86.45996;100257.6;;;;-87
2021/12/27 02:02:44;;;;;;;;;;;;;;;0.43;86.55859;100256.7;;;;-86
2021/12/27 02:07:44;;;;;;;;;;;;;;;0.44;86.67871;100255.2;;;;-90
2021/12/27 02:12:45;;;;;;;;;;;;;;;0.46;86.63086;100244.4;;;;-91
2021/12/27 02:17:39;;;;;;;;;;;;;;;0.47;87.00781;100251.2;;;;-90
2021/12/27 02:20:52;;;;;;;19.2;8;;;;;;;;;;;;;-91
2021/12/27 02:22:55;;;;;;;;;;;;;;;0.49;86.92578;100243;;;;-90
2021/12/27 02:27:45;;;;;;;;;;;;;;;0.5;86.92773;100238.8;;;;-90
2021/12/27 02:32:47;;;;;;;;;;;;;;;0.51;87.0498;100237.7;;;;-89
2021/12/27 02:37:40;;;;;;;;;;;;;;;0.52;87.1377;100234.1;;;;-89
2021/12/27 02:42:38;;;;;;;;;;;;;;;0.53;87.08594;100226.5;;;;-90
2021/12/27 02:47:50;;;;;;;;;;;;;;;0.55;87.14355;100224.8;;;;-91
2021/12/27 02:50:37;;;;;;;20.1;7.9;;;;;;;;;;;;;-91
2021/12/27 02:52:40;;;;;;;;;;;;;;;0.56;87.07227;100217.6;;;;-91
2021/12/27 02:57:44;;;;;;;;;;;;;;;0.58;86.94434;100211.1;;;;-90
2021/12/27 03:02:40;;;;;;;;;;;;;;;0.59;87.10938;100202.9;;;;-90
2021/12/27 03:07:55;;;;;;;;;;;;;;;0.61;86.82031;100193.8;;;;-90
2021/12/27 03:12:43;;;;;;;;;;;;;;;0.62;86.91895;100203.8;;;;-91
2021/12/27 03:17:48;;;;;;;;;;;;;;;0.62;87.32031;100212.1;;;;-91
2021/12/27 03:20:51;;;;;;;18;8.1;;;;;;;;;;;;;-91
2021/12/27 03:22:41;;;;;;;;;;;;;;;0.64;87.38867;100210.8;;;;-89
2021/12/27 03:27:38;;;;;;;;;;;;;;;0.66;87.64063;100207.1;;;;-90
2021/12/27 03:32:44;;;;;;;;;;;;;;;0.68;87.74121;100204.2;;;;-90
2021/12/27 03:37:43;;;;;;;;;;;;;;;0.69;87.8623;100199.3;;;;-91
2021/12/27 03:42:57;;;;;;;;;;;;;;;0.71;87.73828;100203.1;;;;-91
2021/12/27 03:47:39;;;;;;;;;;;;;;;0.72;87.69531;100198.3;;;;-86
2021/12/27 03:50:39;;;;;;;20.9;7.8;;;;;;;;;;;;;-86
2021/12/27 03:52:41;;;;;;;;;;;;;;;0.73;87.82813;100188.2;;;;-85
2021/12/27 03:57:42;;;;;;;;;;;;;;;0.74;87.80859;100187.5;;;;-87
2021/12/27 04:02:44;;;;;;;;;;;;;;;0.75;88.15527;100181.9;;;;-86
2021/12/27 04:07:41;;;;;;;;;;;;;;;0.77;88.00977;100175.8;;;;-84
2021/12/27 04:12:42;;;;;;;;;;;;;;;0.79;87.87402;100172.9;;;;-86
2021/12/27 04:17:41;;;;;;;;;;;;;;;0.8;88.1123;100168;;;;-86
2021/12/27 04:20:32;;;;;;;20.5;7.9;;;;;;;;;;;;;-85
2021/12/27 04:22:39;;;;;;;;;;;;;;;0.82;87.87695;100161.6;;;;-91
2021/12/27 04:27:55;;;;;;;;;;;;;;;0.84;87.89355;100157.8;;;;-90
2021/12/27 04:32:39;;;;;;;;;;;;;;;0.85;87.72266;100150.4;;;;-91
2021/12/27 04:37:38;;;;;;;;;;;;;;;0.86;87.69238;100141.3;;;;-90
2021/12/27 04:42:55;;;;;;;;;;;;;;;0.87;87.84473;100132.4;;;;-91
2021/12/27 04:47:38;;;;;;;;;;;;;;;0.89;87.60059;100126.3;;;;-90
2021/12/27 04:50:35;;;;;;;20.2;8.1;;;;;;;;;;;;;-90
2021/12/27 04:52:47;;;;;;;;;;;;;;;0.91;87.72461;100128.7;;;;-86
2021/12/27 04:57:40;;;;;;;;;;;;;;;0.92;87.60645;100131.5;;;;-91
2021/12/27 05:02:39;;;;;;;;;;;;;;;0.92;87.83496;100127.5;;;;-90
2021/12/27 05:07:38;;;;;;;;;;;;;;;0.95;87.70898;100127;;;;-89
2021/12/27 05:12:40;;;;;;;;;;;;;;;0.95;87.875;100125.2;;;;-89
2021/12/27 05:17:44;;;;;;;;;;;;;;;0.96;88.10352;100127.1;;;;-90
2021/12/27 05:20:37;;;;;;;19.1;7.9;;;;;;;;;;;;;-90
2021/12/27 05:22:38;;;;;;;;;;;;;;;0.98;88.20215;100123.1;;;;-90
2021/12/27 05:27:38;;;;;;;;;;;;;;;0.98;88.2793;100113.6;;;;-90
2021/12/27 05:32:47;;;;;;;;;;;;;;;1;88.25098;100109.5;;;;-91
2021/12/27 05:37:50;;;;;;;;;;;;;;;1.01;88.24219;100088.4;;;;-87
2021/12/27 05:42:44;;;;;;;;;;;;;;;1.03;87.99902;100083.9;;;;-86
2021/12/27 05:47:40;;;;;;;;;;;;;;;1.05;88.02344;100080.1;;;;-84
2021/12/27 05:50:27;;;;;;;18.5;7.4;;;;;;;;;;;;;-87
2021/12/27 05:52:41;;;;;;;;;;;;;;;1.06;87.90625;100074.1;;;;-86
2021/12/27 05:57:40;;;;;;;;;;;;;;;1.07;87.92969;100072.6;;;;-86
2021/12/27 06:02:44;;;;;;;;;;;;;;;1.08;88.13867;100067.5;;;;-91
2021/12/27 06:07:48;;;;;;;;;;;;;;;1.1;88.21582;100067.6;;;;-90
2021/12/27 06:12:47;;;;;;;;;;;;;;;1.11;88.29297;100075.9;;;;-90
2021/12/27 06:17:42;;;;;;;;;;;;;;;1.12;88.26465;100077;;;;-90
2021/12/27 06:20:27;;;;;;;20.1;7.9;;;;;;;;;;;;;-91
2021/12/27 06:22:39;;;;;;;;;;;;;;;1.13;88.65723;100079.1;;;;-90
2021/12/27 06:27:42;;;;;;;;;;;;;;;1.15;88.69141;100088.5;;;;-88
2021/12/27 06:32:42;;;;;;;;;;;;;;;1.18;88.66504;100084.1;;;;-87
2021/12/27 06:37:46;;;;;;;;;;;;;;;1.19;88.76367;100086.9;;;;-86
2021/12/27 06:47:42;;;;;;;;;;;;;;;1.21;88.83398;100083.8;;;;-87
2021/12/27 06:50:26;;;;;;;17.1;7.4;;;;;;;;;;;;;-85
2021/12/27 06:52:38;;;;;;;;;;;;;;;1.23;88.83789;100091.4;;;;-85
2021/12/27 06:57:42;;;;;;;;;;;;;;;1.25;88.86328;100087.5;;;;-86
2021/12/27 07:06:54;;;;;;;;;;;;;;;1.27;89.05078;100081.4;;;;-91
2021/12/27 07:12:27;;;;;;;;;;;;;;;1.29;89.04395;100073.1;;;;-91
2021/12/27 07:17:22;;;;;;;;;;;;;;;1.32;88.94336;100082;;;;-90
2021/12/27 07:20:36;;;;;;;17.5;7;;;;;;;;;;;;;-91
2021/12/27 07:27:12;;;;;;;;;;;;;;;1.36;88.9834;100087.5;;;;-91
2021/12/27 07:32:00;;;;;;;;;;;;;;;1.38;88.91113;100087.9;;;;-90
2021/12/27 07:36:56;;;;;;;;;;;;;;;1.4;88.80664;100088.5;;;;-90
2021/12/27 07:41:58;;;;;;;;;;;;;;;1.41;88.7998;100093.7;;;;-90
2021/12/27 07:47:07;;;;;;;;;;;;;;;1.43;88.81445;100099.3;;;;-91
2021/12/27 07:50:37;;;;;;;17.8;6.6;;;;;;;;;;;;;-91
2021/12/27 07:51:54;;;;;;;;;;;;;;;1.44;88.88086;100088.2;;;;-91
2021/12/27 07:57:06;;;;;;;;;;;;;;;1.45;88.9375;100084.1;;;;-91
2021/12/27 08:12:09;;;;;;;;;;;;;;;1.51;88.85352;100074.2;;;;-92
2021/12/27 08:17:14;;;;;;;;;;;;;;;1.53;88.8584;100067.1;;;;-90
2021/12/27 08:20:36;;;;;;;16.6;6.9;;;;;;;;;;;;;-91
2021/12/27 08:46:51;;;;;;;;;;;;;;;1.69;88.65332;100066.7;;;;-92
2021/12/27 08:56:54;;;;;;;;;;;;;;;1.72;88.9502;100068.9;;;;-91
2021/12/27 09:01:59;;;;;;;;;;;;;;;1.78;88.9082;100061.7;;;;-91
2021/12/27 09:11:59;;;;;;;;;;;;;;;1.88;88.80957;100045.5;;;;-91
2021/12/27 09:20:33;;;;;;;15.3;6.5;;;;;;;;;;;;;-90
2021/12/27 09:21:52;;;;;;;;;;;;;;;1.97;88.86133;100034.1;;;;-89
2021/12/27 09:26:45;;;;;;;;;;;;;;;2.03;88.86133;100032.9;;;;-85
2021/12/27 09:31:51;;;;;;;;;;;;;;;2.07;89.1543;100039.7;;;;-87
2021/12/27 09:36:40;;;;;;;;;;;;;;;2.13;89.31641;100039.5;;;;-85
2021/12/27 09:41:43;;;;;;;;;;;;;;;2.19;89.42578;100050.1;;;;-87
2021/12/27 09:46:46;;;;;;;;;;;;;;;2.25;89.44922;100036.8;;;;-87
2021/12/27 09:50:29;;;;;;;18.5;7;;;;;;;;;;;;;-86
2021/12/27 09:51:46;;;;;;;;;;;;;;;2.31;89.42871;100037.3;;;;-86
2021/12/27 09:56:45;;;;;;;;;;;;;;;2.37;89.37695;100023.2;;;;-86
2021/12/27 10:01:42;;;;;;;;;;;;;;;2.43;89.40039;100024.7;;;;-87
2021/12/27 10:06:43;;;;;;;;;;;;;;;2.48;89.52051;100017.1;;;;-86
2021/12/27 10:11:39;;;;;;;;;;;;;;;2.54;89.75781;100013.2;;;;-86
2021/12/27 10:16:50;;;;;;;;;;;;;;;2.6;89.90039;100019.4;;;;-86
2021/12/27 10:20:19;;;;;;;17.8;7.2;;;;;;;;;;;;;-86
2021/12/27 10:21:45;;;;;;;;;;;;;;;2.66;90.07617;100010.9;;;;-87
2021/12/27 10:26:49;;;;;;;;;;;;;;;2.73;90.0918;100001.8;;;;-91
2021/12/27 10:40:09;;;;;;;;;;;;;;;2.89;89.95117;99994.85;;;;-90
2021/12/27 10:44:56;;;;;;;;;;;;;;;2.95;89.8252;99995.53;;;;-90
2021/12/27 10:50:02;;;;;;;;;;;;;;;3.03;89.73145;99984.75;;;;-90
2021/12/27 10:50:33;;;;;;;22.6;8.2;;;;;;;;;;;;;-90
2021/12/27 10:54:54;;;;;;;;;;;;;;;3.1;89.79883;99962.66;;;;-90
2021/12/27 11:00:03;;;;;;;;;;;;;;;3.16;89.88672;99951.39;;;;-91
2021/12/27 11:04:52;;;;;;;;;;;;;;;3.22;89.96484;99947.19;;;;-90
2021/12/27 11:09:59;;;;;;;;;;;;;;;3.29;90.03223;99953.01;;;;-90
2021/12/27 11:14:47;;;;;;;;;;;;;;;3.34;89.98926;99959.23;;;;-89
2021/12/27 11:24:43;;;;;;;;;;;;;;;3.4;90.11328;99958.92;;;;-87
2021/12/27 11:34:58;;;;;;;;;;;;;;;3.46;90.38281;99947.98;;;;-87
2021/12/27 11:39:50;;;;;;;;;;;;;;;3.53;90.40039;99941.41;;;;-87
2021/12/27 11:44:45;;;;;;;;;;;;;;;3.57;90.35156;99930.63;;;;-87
2021/12/27 11:49:59;;;;;;;;;;;;;;;3.6;90.49219;99930.64;;;;-87
2021/12/27 11:50:26;;;;;;;19.7;8.4;;;;;;;;;;;;;-86
2021/12/27 11:54:44;;;;;;;;;;;;;;;3.62;90.3418;99926.81;;;;-85
2021/12/27 11:59:43;;;;;;;;;;;;;;;3.64;90.43457;99924.56;;;;-86
2021/12/27 12:04:52;;;;;;;;;;;;;;;3.68;90.35547;99923.97;;;;-86
2021/12/27 12:09:47;;;;;;;;;;;;;;;3.72;90.29785;99921.84;;;;-86
2021/12/27 12:14:42;;;;;;;;;;;;;;;3.75;90.18555;99915.09;;;;-86
2021/12/27 12:19:50;;;;;;;;;;;;;;;3.79;90.11719;99896.34;;;;-87
2021/12/27 12:20:24;;;;;;;20.6;7.8;;;;;;;;;;;;;-85
2021/12/27 12:24:50;;;;;;;;;;;;;;;3.84;90.06152;99890.92;;;;-86
2021/12/27 12:29:45;;;;;;;;;;;;;;;3.87;89.99316;99888.39;;;;-86
2021/12/27 12:34:46;;;;;;;;;;;;;;;3.9;90.00098;99868.38;;;;-85
2021/12/27 12:39:46;;;;;;;;;;;;;;;3.95;90.08594;99856.63;;;;-85
2021/12/27 12:44:55;;;;;;;;;;;;;;;3.99;90.07227;99862.06;;;;-84
2021/12/27 12:49:42;;;;;;;;;;;;;;;4.03;89.99316;99869.27;;;;-86
2021/12/27 12:50:24;;;;;;;19.3;8.2;;;;;;;;;;;;;-85
2021/12/27 12:54:58;;;;;;;;;;;;;;;4.06;90.04395;99870.73;;;;-85
2021/12/27 12:59:45;;;;;;;;;;;;;;;4.09;90.00586;99865.71;;;;-85
2021/12/27 13:04:58;;;;;;;;;;;;;;;4.13;90.0459;99868.83;;;;-86
2021/12/27 13:09:57;;;;;;;;;;;;;;;4.16;90.13867;99873.47;;;;-87
2021/12/27 13:14:43;;;;;;;;;;;;;;;4.19;90.3291;99869.81;;;;-87
2021/12/27 13:20:03;;;;;;;;;;;;;;;4.2;90.33301;99858.42;;;;-87
2021/12/27 13:20:25;;;;;;;17.4;8;;;;;;;;;;;;;-87
2021/12/27 13:25:00;;;;;;;;;;;;;;;4.22;90.53223;99853.88;;;;-87
2021/12/27 13:29:42;;;;;;;;;;;;;;;4.25;90.45313;99852.8;;;;-86
2021/12/27 13:41:59;;;;;;;;;;;;;;;4.28;90.60059;99844.28;;;;-91
2021/12/27 13:46:56;;;;;;;;;;;;;;;4.31;90.54102;99829.44;;;;-92
2021/12/27 13:52:03;;;;;;;;;;;;;;;4.35;90.61523;99830.86;;;;-91
2021/12/27 13:56:51;;;;;;;;;;;;;;;4.38;90.71973;99837.32;;;;-92
2021/12/27 14:12:08;;;;;;;;;;;;;;;4.43;90.88086;99823.91;;;;-85
2021/12/27 15:23:06;;;;;;;;;;;;;;;4.43;91.15332;99807.15;;;;-91
2021/12/27 15:36:26;;;;;;;;;;;;;;;4.43;91.15332;99792.38;;;;-92
2021/12/27 15:46:19;;;;;;;;;;;;;;;4.42;91.06348;99785.11;;;;-92
2021/12/27 15:50:28;;;;;;;14.4;7.1;;;;;;;;;;;;;-91
2021/12/27 15:51:16;;;;;;;;;;;;;;;4.41;90.96582;99778.63;;;;-91
2021/12/27 15:56:39;;;;;;;;;;;;;;;4.41;91.00586;99773.89;;;;-91
2021/12/27 16:01:19;;;;;;;;;;;;;;;4.4;90.95117;99772.31;;;;-91
2021/12/27 16:06:17;;;;;;;;;;;;;;;4.4;90.91895;99771.17;;;;-90
2021/12/27 16:11:30;;;;;;;;;;;;;;;4.4;90.78809;99766.55;;;;-90
2021/12/27 16:16:16;;;;;;;;;;;;;;;4.4;90.82129;99758.22;;;;-91
2021/12/27 16:21:26;;;;;;;;;;;;;;;4.39;90.75586;99759.63;;;;-90
2021/12/27 16:26:20;;;;;;;;;;;;;;;4.4;90.79883;99753.65;;;;-91
2021/12/27 16:31:31;;;;;;;;;;;;;;;4.4;90.71191;99754.14;;;;-90
2021/12/27 16:40:25;;;;;;;;;;;;;;;4.43;90.97852;99748.41;;;;-85
2021/12/27 16:55:18;;;;;;;;;;;;;;;4.45;91.1582;99747.36;;;;-82
2021/12/27 17:00:06;;;;;;;;;;;;;;;4.46;91.07129;99741.52;;;;-86
2021/12/27 17:05:26;;;;;;;;;;;;;;;4.48;91.11035;99740.61;;;;-85
2021/12/27 17:15:17;;;;;;;;;;;;;;;4.49;91.38379;99737.98;;;;-86
2021/12/27 17:20:03;;;;;;;;;;;;;;;4.51;91.5293;99741.69;;;;-86
2021/12/27 17:20:16;;;;;;;14.2;6.9;;;;;;;;;;;;;-86
2021/12/27 17:25:07;;;;;;;;;;;;;;;4.52;91.60742;99735.94;;;;-85
2021/12/27 17:30:04;;;;;;;;;;;;;;;4.51;91.53125;99731.59;;;;-84
2021/12/27 17:35:17;;;;;;;;;;;;;;;4.52;91.65039;99723.13;;;;-86
2021/12/27 17:40:02;;;;;;;;;;;;;;;4.53;91.65234;99713.36;;;;-85
2021/12/27 17:45:17;;;;;;;;;;;;;;;4.52;91.73926;99716.69;;;;-86
2021/12/27 17:50:05;;;;;;;;;;;;;;;4.5;92.05957;99707.3;;;;-87
2021/12/27 17:50:41;;;;;;;13.3;6.9;;;;;;;;;;;;;-87
2021/12/27 17:55:03;;;;;;;;;;;;;;;4.51;92.18359;99705.28;;;;-85
2021/12/27 18:00:05;;;;;;;;;;;;;;;4.51;92.11426;99702.33;;;;-86
2021/12/27 18:10:10;;;;;;;;;;;;;;;4.51;92.2793;99687.92;;;;-88
2021/12/27 18:15:30;;;;;;;;;;;;;;;4.51;92.15918;99676.48;;;;-87
2021/12/27 18:20:04;;;;;;;;;;;;;;;4.51;92.21191;99673.89;;;;-87
2021/12/27 18:20:25;;;;;;;13.9;7;;;;;;;;;;;;;-87
2021/12/27 18:25:20;;;;;;;;;;;;;;;4.48;92.31641;99681.52;;;;-87
2021/12/27 18:30:29;;;;;;;;;;;;;;;4.48;92.36035;99684.2;;;;-87
2021/12/27 18:35:11;;;;;;;;;;;;;;;4.48;92.34961;99683.41;;;;-87
2021/12/27 18:50:17;;;;;;;;;;;;;;;4.46;92.54102;99685.03;;;;-87
2021/12/27 18:50:38;;;;;;;15.5;6.9;;;;;;;;;;;;;-87
2021/12/27 18:55:13;;;;;;;;;;;;;;;4.49;92.57715;99686.79;;;;-87
2021/12/27 19:00:39;;;;;;;;;;;;;;;;;;;;;
2021/12/27 19:05:33;;;;;;;;;;;;;;;4.49;92.55762;99685.35;;;;-87
2021/12/27 19:18:34;;;;;;;;;;;;;;;4.53;92.46777;99668.42;;;;-87
2021/12/27 19:20:27;;;;;;;14.3;7;;;;;;;;;;;;;-87
2021/12/27 20:51:16;;;;;;;14.1;6.6;;;;;;;;;;;;;-85
2021/12/27 20:54:56;;;;;;;;;;;;;;;4.9;93.02637;99597.72;;;;-85
2021/12/27 21:43:31;;;;;;;;;;;;;;;5.12;93.12793;99565.92;;;;-86
2021/12/27 21:53:09;;;;;;;;;;;;;;;5.18;93.19336;99559.23;;;;-85
2021/12/27 22:19:29;;;;;;;;;;;;;;;5.35;93.2959;99554.92;;;;-86
2021/12/27 22:20:03;;;;;;;15.4;7.3;;;;;;;;;;;;;-85
2021/12/27 22:23:27;;;;;;;;;;;;;;;5.36;93.26758;99559.05;;;;-85
2021/12/27 22:46:20;;;;;;;;;;;;;;;5.49;93.22949;99534.78;;;;-86
2021/12/27 22:54:58;;;;;;;;;;;;;;;;;;;;;
